»·PEaware :: STRYK11 KSBP-KTVL

STRYK11 :: KSBP-KTVL

FLIGHT INFORMATION

Flight Status: Arrived
Operator: Unknown
More flights by this operator :: More flights under this callsign
Pilot: Kevin M. (7)
Aircraft: Unknown
(F35)
More flights by this aircraft type
Origin: KSBP San Luis Co Regl
United States
Destination: KTVL Lake Tahoe
United States
More flights between these airports :: More routes between these airports
Route: SNS SAC FMG
File this flight plan on PilotEdge
Remarks:
Altitude:
(Current/Filed)
28,000ft
Speed:
(Current/Filed)
580kts
Departed: 01-Sep-19 01:44 PM
Arrived: 01-Sep-19 02:20 PM
Distance/Time
Traveled:
221nm/0:36
Distance/Time
To Go:
Arrived

Flight Plot

Page will automatically refresh every two minutes.

Flight plan parsing failed; only flown route is shown


Map Options




Map Legend


Flown Route
Filed Route
Departure Airport
Arrival Airport
Navaid (VOR, NDB)
Fix

Horizontal Profiles

Position Reports

Time Latitude Longitude Heading Altitude Ground
Speed
01-Sep-19 13:36 35.236830 -120.636738 128 210ft 0kts
01-Sep-19 13:37 35.236830 -120.636738 128 210ft 0kts
01-Sep-19 13:38 35.236830 -120.636738 128 210ft 0kts
01-Sep-19 13:39 35.236830 -120.636738 128 210ft 0kts
01-Sep-19 13:40 35.233862 -120.632747 124 218ft 29kts
01-Sep-19 13:41 35.233310 -120.632247 202 217ft 0kts
01-Sep-19 13:42 35.233310 -120.632247 202 217ft 0kts
01-Sep-19 13:43 35.233310 -120.632247 202 217ft 0kts
01-Sep-19 13:44 35.233513 -120.634067 305 217ft 79kts
01-Sep-19 13:45 35.257314 -120.674053 302 5412ft 156kts
01-Sep-19 13:46 35.289431 -120.728118 302 16073ft 211kts
01-Sep-19 13:47 35.321280 -120.779481 305 23208ft 246kts
01-Sep-19 13:48 35.393449 -120.878495 326 26203ft 534kts
01-Sep-19 13:49 35.544475 -120.952390 334 28007ft 619kts
01-Sep-19 13:50 35.697028 -121.045896 329 28049ft 613kts
01-Sep-19 13:51 35.851102 -121.139206 333 28046ft 619kts
01-Sep-19 13:52 36.008356 -121.228179 333 28048ft 624kts
01-Sep-19 13:53 36.165673 -121.317569 333 28051ft 621kts
01-Sep-19 13:54 36.322539 -121.407076 333 28052ft 621kts
01-Sep-19 13:54 36.452972 -121.481813 333 28058ft 621kts
01-Sep-19 13:56 36.636362 -121.587861 330 28061ft 620kts
01-Sep-19 13:57 36.803475 -121.601457 16 28074ft 633kts
01-Sep-19 13:57 36.953883 -121.594804 1 28080ft 654kts
01-Sep-19 13:58 37.133888 -121.589836 0 28056ft 637kts
01-Sep-19 14:00 37.339469 -121.583961 0 28074ft 635kts
01-Sep-19 14:00 37.486458 -121.579721 0 28059ft 636kts
01-Sep-19 14:01 37.663442 -121.574597 0 28046ft 636kts
01-Sep-19 14:02 37.839860 -121.569467 0 28035ft 636kts
01-Sep-19 14:03 38.017187 -121.564284 0 28037ft 634kts
01-Sep-19 14:04 38.188669 -121.559240 0 28043ft 593kts
01-Sep-19 14:05 38.353648 -121.554377 0 28024ft 593kts
01-Sep-19 14:06 38.500911 -121.473584 53 28020ft 590kts
01-Sep-19 14:07 38.592507 -121.298830 54 28031ft 598kts
01-Sep-19 14:08 38.691999 -121.128759 54 28046ft 597kts
01-Sep-19 14:09 38.790973 -120.958567 54 28138ft 590kts
01-Sep-19 14:10 38.889196 -120.788765 54 28151ft 591kts
01-Sep-19 14:11 38.987795 -120.617388 54 28274ft 600kts
01-Sep-19 14:12 39.086837 -120.444252 54 26995ft 596kts
01-Sep-19 14:13 39.188501 -120.269450 52 18255ft 629kts
01-Sep-19 14:14 39.198432 -120.039672 107 10974ft 879kts
01-Sep-19 14:15 38.967487 -119.999682 202 8569ft 857kts
01-Sep-19 14:16 38.948121 -119.959540 30 8421ft 502kts
01-Sep-19 14:17 38.953121 -119.996506 121 8408ft 242kts
01-Sep-19 14:18 38.969817 -119.944025 270 6753ft 262kts
01-Sep-19 14:19 38.905080 -119.992046 192 6258ft 0kts
01-Sep-19 14:20 38.905055 -119.992053 193 6258ft 4kts
01-Sep-19 14:21 38.889757 -119.954646 33 9257ft 302kts
01-Sep-19 14:22 38.954497 -119.969619 239 8517ft 206kts
01-Sep-19 14:23 38.907219 -119.991403 196 6340ft 175kts
01-Sep-19 14:24 38.886885 -119.997382 194 6268ft 0kts
01-Sep-19 14:25 38.886885 -119.997382 194 6268ft 0kts
01-Sep-19 14:26 38.886885 -119.997382 194 6268ft 0kts
01-Sep-19 14:27 38.886885 -119.997382 194 6268ft 0kts

Navigation Log

Ident Type
Flight plan parsing failed, navigation log unavailable